Time;durP1;ratioP1;P1;durP2;ratioP2;P2;SDS_P1;SDS_P2;PMS_P1;PMS_P2;Temp;Humidity;BMP_temperature;BMP_pressure;BME280_temperature;BME280_humidity;BME280_pressure;Samples;Min_cycle;Max_cycle;Signal;HPM_P1;HPM_P2
2022/01/25 00:32:11;;;;;;;19.97;10.83;;;;;;;-6.26;100.00;-23637.28;5087209;28;20224;-72
2022/01/25 00:34:36;;;;;;;20.13;10.90;;;;;;;-6.32;100.00;-23635.53;5072486;28;20178;-72
2022/01/25 00:37:02;;;;;;;22.57;11.37;;;;;;;-6.37;100.00;-23634.09;5088579;28;20192;-72
2022/01/25 00:39:28;;;;;;;22.43;10.87;;;;;;;-6.80;100.00;-23621.69;5092700;28;20177;-72
2022/01/25 00:41:53;;;;;;;21.43;10.63;;;;;;;-6.35;100.00;-23634.66;5070933;28;20556;-73
2022/01/25 00:44:19;;;;;;;19.93;10.70;;;;;;;-6.65;100.00;-23626.00;5071806;28;20339;-73
2022/01/25 00:46:44;;;;;;;22.70;11.00;;;;;;;-6.86;100.00;-23620.09;5072136;28;20610;-73
2022/01/25 00:49:14;;;;;;;20.33;9.90;;;;;;;-6.82;100.00;-23621.09;5072344;28;20270;-72
2022/01/25 00:54:33;;;;;;;20.53;10.67;;;;;;;-6.98;100.00;-23616.47;5071920;28;20600;-73
2022/01/25 00:57:00;;;;;;;21.17;10.27;;;;;;;-6.31;100.00;-23635.69;5072096;28;20166;-73
2022/01/25 00:59:28;;;;;;;20.30;10.47;;;;;;;-6.88;100.00;-23619.38;5077464;28;20250;-73
2022/01/25 01:01:59;;;;;;;22.20;10.63;;;;;;;-6.42;100.00;-23632.50;5071844;28;20209;-73
2022/01/25 01:04:25;;;;;;;21.13;10.23;;;;;;;-6.62;100.00;-23626.72;5091477;28;20191;-73
2022/01/25 01:06:51;;;;;;;20.83;10.47;;;;;;;-6.75;100.00;-23623.13;5087541;28;20182;-73
2022/01/25 01:09:20;;;;;;;20.90;10.27;;;;;;;-6.65;100.00;-23626.00;5074083;28;20655;-73
2022/01/25 01:48:09;;;;;;;25.00;12.17;;;;;;;-6.54;100.00;-23629.19;5081408;28;20571;-72
2022/01/25 01:50:37;;;;;;;25.97;11.53;;;;;;;-5.91;100.00;-23647.06;5074047;28;20637;-73
2022/01/25 01:53:05;;;;;;;21.07;11.03;;;;;;;-6.52;100.00;-23629.63;5080794;28;20212;-74
2022/01/25 01:55:31;;;;;;;22.97;11.70;;;;;;;-6.11;100.00;-23641.31;5012965;28;20666;-74
2022/01/25 01:57:58;;;;;;;24.83;11.83;;;;;;;-6.15;100.00;-23640.16;4434633;28;20677;-74
2022/01/25 02:00:32;;;;;;;23.40;12.33;;;;;;;-6.08;100.00;-23642.16;4432923;28;20919;-72
2022/01/25 02:03:00;;;;;;;26.13;11.23;;;;;;;-6.32;100.00;-23635.38;4941529;28;20617;-71
2022/01/25 02:05:26;;;;;;;21.73;11.23;;;;;;;-6.07;100.00;-23642.47;5074268;28;20585;-71
2022/01/25 02:07:52;;;;;;;21.30;10.87;;;;;;;-6.44;100.00;-23631.94;5062165;28;20617;-71
2022/01/25 02:10:17;;;;;;;20.93;11.23;;;;;;;-6.47;100.00;-23631.06;5075300;28;20205;-71
2022/01/25 02:12:46;;;;;;;18.53;10.57;;;;;;;-6.25;100.00;-23637.41;5075147;28;20567;-71
2022/01/25 02:15:12;;;;;;;25.60;11.90;;;;;;;-6.36;100.00;-23634.22;5078236;28;20281;-72
2022/01/25 02:22:55;;;;;;;24.03;11.07;;;;;;;-6.86;100.00;-23619.94;5080489;28;20279;-72
2022/01/25 02:25:21;;;;;;;23.60;12.13;;;;;;;-6.62;100.00;-23626.88;5077962;28;20640;-72
2022/01/25 02:27:46;;;;;;;19.00;9.87;;;;;;;-6.79;100.00;-23622.09;5075431;28;20251;-72
2022/01/25 02:30:12;;;;;;;19.07;10.53;;;;;;;-6.90;100.00;-23618.78;5077093;28;22613;-72
2022/01/25 02:32:38;;;;;;;23.67;10.60;;;;;;;-6.81;100.00;-23621.38;5079264;28;20192;-72
2022/01/25 02:35:05;;;;;;;24.57;11.27;;;;;;;-6.71;100.00;-23624.28;5056963;28;20194;-72
2022/01/25 02:37:31;;;;;;;19.20;9.97;;;;;;;-6.80;100.00;-23621.69;5082096;28;20210;-72
2022/01/25 02:39:57;;;;;;;21.90;10.37;;;;;;;-7.00;100.00;-23615.91;5076837;28;20216;-71
2022/01/25 02:42:23;;;;;;;21.70;10.00;;;;;;;-7.60;100.00;-23599.00;5076389;28;20189;-73
2022/01/25 02:44:49;;;;;;;20.83;10.17;;;;;;;-6.67;100.00;-23625.44;5080499;28;20181;-71
2022/01/25 02:49:59;;;;;;;19.50;9.17;;;;;;;-7.19;100.00;-23610.56;5077050;28;20238;-71
2022/01/25 02:52:25;;;;;;;18.83;9.77;;;;;;;-6.78;100.00;-23622.25;5079686;28;20213;-71
2022/01/25 02:54:50;;;;;;;18.53;9.23;;;;;;;-6.79;100.00;-23621.97;5080494;28;20178;-71
2022/01/25 02:57:16;;;;;;;17.60;8.97;;;;;;;-6.75;100.00;-23623.13;5094996;28;20525;-72
2022/01/25 02:59:42;;;;;;;16.00;9.23;;;;;;;-6.88;100.00;-23619.50;5083858;28;20828;-72
2022/01/25 03:02:07;;;;;;;18.50;9.10;;;;;;;-7.38;100.00;-23605.22;5074590;28;20178;-71
2022/01/25 03:04:33;;;;;;;18.87;9.33;;;;;;;-6.82;100.00;-23621.25;5074482;28;20633;-71
2022/01/25 03:06:58;;;;;;;16.07;8.93;;;;;;;-7.00;100.00;-23615.91;5074477;28;20170;-73
2022/01/25 03:09:24;;;;;;;21.13;8.47;;;;;;;-6.73;100.00;-23623.84;5074179;28;20289;-71
2022/01/25 03:11:52;;;;;;;16.90;8.03;;;;;;;-7.28;100.00;-23608.09;5074206;28;20699;-72
2022/01/25 03:14:20;;;;;;;20.10;8.40;;;;;;;-6.96;100.00;-23617.06;5074158;28;20575;-71
2022/01/25 03:17:07;;;;;;;16.73;8.40;;;;;;;-7.86;100.00;-23591.47;5076755;28;20657;-71
2022/01/25 03:22:33;;;;;;;15.27;7.83;;;;;;;-7.28;100.00;-23607.94;5079851;28;20641;-71
2022/01/25 03:24:59;;;;;;;15.03;7.57;;;;;;;-7.47;100.00;-23602.59;5085117;28;20192;-73
2022/01/25 03:27:25;;;;;;;16.17;8.63;;;;;;;-7.03;100.00;-23615.03;5076594;28;20186;-73
2022/01/25 03:29:50;;;;;;;16.33;8.43;;;;;;;-7.38;100.00;-23605.22;5093826;28;20201;-71
2022/01/25 03:32:16;;;;;;;18.43;8.87;;;;;;;-7.50;100.00;-23601.75;5086906;28;20620;-71
2022/01/25 03:34:41;;;;;;;19.90;8.60;;;;;;;-7.42;100.00;-23604.06;5073770;28;20173;-73
2022/01/25 03:37:06;;;;;;;17.53;7.90;;;;;;;-7.05;100.00;-23614.44;5073405;28;20285;-73
2022/01/25 03:39:32;;;;;;;16.47;7.70;;;;;;;-6.95;100.00;-23617.34;5073999;28;20174;-73
2022/01/25 03:41:57;;;;;;;19.47;9.07;;;;;;;-6.95;100.00;-23617.34;5074415;28;20177;-73
2022/01/25 03:44:23;;;;;;;17.47;7.77;;;;;;;-6.85;100.00;-23620.22;5073827;28;20541;-73
2022/01/25 03:51:58;;;;;;;14.17;7.40;;;;;;;-6.86;100.00;-23620.09;5073760;28;20556;-73
2022/01/25 03:54:24;;;;;;;16.60;7.30;;;;;;;-7.28;100.00;-23608.09;5073912;28;20174;-73
2022/01/25 03:56:49;;;;;;;14.23;7.00;;;;;;;-6.74;100.00;-23623.41;5074536;28;20185;-73
2022/01/25 03:59:14;;;;;;;13.63;6.80;;;;;;;-7.00;100.00;-23616.03;5074327;28;20186;-73
2022/01/25 04:01:40;;;;;;;13.30;6.67;;;;;;;-6.67;100.00;-23625.44;5081397;28;20640;-73
2022/01/25 04:04:10;;;;;;;11.77;6.80;;;;;;;-6.86;100.00;-23619.94;5077444;28;20608;-73
2022/01/25 04:06:37;;;;;;;14.90;6.97;;;;;;;-6.84;100.00;-23620.66;5083480;28;20692;-73
2022/01/25 04:09:05;;;;;;;13.13;6.10;;;;;;;-6.35;99.46;-23634.53;5093533;28;20296;-73
2022/01/25 04:11:31;;;;;;;12.83;6.67;;;;;;;-6.41;98.33;-23632.94;5082727;28;20209;-73
2022/01/25 04:13:57;;;;;;;11.27;6.57;;;;;;;-6.32;97.22;-23635.53;5077221;28;20184;-73
2022/01/25 04:16:30;;;;;;;12.57;7.23;;;;;;;-6.67;96.83;-23625.44;5077455;28;20185;-73
2022/01/25 04:26:43;;;;;;;15.00;6.40;;;;;;;-6.31;96.38;-23635.81;5075468;28;20318;-73
2022/01/25 04:29:09;;;;;;;11.00;5.87;;;;;;;-6.07;95.21;-23642.47;5055608;28;20304;-73
2022/01/25 04:31:36;;;;;;;12.23;6.70;;;;;;;-6.18;95.59;-23639.44;5057128;28;20193;-73
2022/01/25 04:50:17;;;;;;;9.73;6.20;;;;;;;-6.74;95.99;-23623.41;5075400;28;20676;-72
2022/01/25 04:55:36;;;;;;;15.17;6.67;;;;;;;-6.87;97.37;-23619.78;5034337;28;20227;-72
2022/01/25 04:58:09;;;;;;;18.47;6.70;;;;;;;-6.31;97.29;-23635.69;5074705;28;20239;-72
2022/01/25 05:00:35;;;;;;;14.97;7.33;;;;;;;-6.34;97.15;-23634.81;5073744;28;20481;-72
2022/01/25 05:03:14;;;;;;;16.57;7.20;;;;;;;-6.79;97.21;-23621.97;5074965;28;20640;-72
2022/01/25 05:06:05;;;;;;;14.13;6.77;;;;;;;-6.53;97.84;-23629.47;5073686;28;20221;-72
2022/01/25 05:08:40;;;;;;;13.83;7.10;;;;;;;-6.82;97.24;-23621.09;5074620;28;20204;-71
2022/01/25 05:11:24;;;;;;;13.40;6.80;;;;;;;-6.66;98.33;-23625.56;5056093;28;20193;-73
2022/01/25 05:16:37;;;;;;;13.17;6.93;;;;;;;-6.87;98.48;-23619.66;5074198;28;20269;-72
2022/01/25 05:24:16;;;;;;;12.40;6.97;;;;;;;-6.84;97.60;-23620.66;5071099;28;20361;-72
2022/01/25 05:26:42;;;;;;;14.03;7.67;;;;;;;-7.00;97.60;-23615.91;5082377;28;20227;-72
2022/01/25 05:29:08;;;;;;;18.70;7.43;;;;;;;-6.57;96.99;-23628.31;5071553;28;20307;-72
2022/01/25 05:31:35;;;;;;;17.27;7.13;;;;;;;-6.80;96.28;-23621.69;5082177;28;20188;-72
2022/01/25 05:34:00;;;;;;;18.50;7.10;;;;;;;-6.53;96.04;-23629.47;5071459;28;20565;-72
2022/01/25 05:36:26;;;;;;;17.80;6.87;;;;;;;-6.39;94.73;-23633.38;5082341;28;20181;-73
2022/01/25 05:38:55;;;;;;;15.77;7.70;;;;;;;-7.57;94.54;-23599.72;5071435;28;20270;-72
2022/01/25 05:41:20;;;;;;;20.87;7.30;;;;;;;-6.44;93.46;-23632.06;5081776;28;20177;-73
2022/01/25 05:47:14;;;;;;;12.40;6.90;;;;;;;-6.15;92.92;-23640.31;5082436;28;20736;-72
2022/01/25 05:49:18;;;;;;;16.90;7.77;;;;;;;-6.54;91.57;-23629.19;5059813;28;20297;-73
2022/01/25 05:51:44;;;;;;;13.57;7.00;;;;;;;-6.38;91.34;-23633.81;5077291;28;20253;-73
2022/01/25 05:54:10;;;;;;;14.70;6.37;;;;;;;-6.50;90.53;-23630.19;5084287;28;20169;-73
2022/01/25 05:56:36;;;;;;;15.13;7.10;;;;;;;-5.96;89.75;-23645.78;5074159;28;20254;-73
2022/01/25 05:59:02;;;;;;;14.53;7.50;;;;;;;-6.08;88.74;-23642.31;5081189;28;20181;-73
2022/01/25 06:01:27;;;;;;;18.73;7.53;;;;;;;-5.92;86.69;-23646.94;5080202;28;20621;-73
2022/01/25 06:03:54;;;;;;;17.57;7.50;;;;;;;-6.24;87.10;-23637.69;5079192;28;20224;-73
2022/01/25 06:06:19;;;;;;;25.67;7.40;;;;;;;-6.43;87.70;-23632.22;5081433;28;20229;-74
2022/01/25 06:08:45;;;;;;;16.13;7.70;;;;;;;-5.64;86.90;-23654.72;5071990;28;20180;-72
2022/01/25 06:11:10;;;;;;;12.80;6.70;;;;;;;-5.78;87.19;-23650.69;5061434;28;20192;-73
2022/01/25 06:13:36;;;;;;;11.50;7.07;;;;;;;-5.71;86.59;-23652.84;5072978;28;20185;-75
2022/01/25 06:16:01;;;;;;;14.10;6.73;;;;;;;-5.90;85.51;-23647.38;5060140;28;20702;-73
2022/01/25 06:18:27;;;;;;;13.03;6.50;;;;;;;-5.79;84.25;-23650.53;5073913;28;20170;-73
2022/01/25 06:20:52;;;;;;;15.97;6.43;;;;;;;-5.13;82.80;-23669.41;5075536;28;20234;-73
2022/01/25 06:23:18;;;;;;;12.33;7.20;;;;;;;-5.40;82.33;-23661.78;5075538;28;20177;-73
2022/01/25 06:25:43;;;;;;;12.27;6.90;;;;;;;-4.92;81.21;-23675.47;5076190;28;20185;-73
2022/01/25 06:28:09;;;;;;;14.97;6.93;;;;;;;-4.98;82.32;-23673.59;5078059;28;20209;-73
2022/01/25 06:30:34;;;;;;;15.63;7.40;;;;;;;-4.87;81.36;-23676.63;5078935;28;20210;-74
2022/01/25 06:33:00;;;;;;;17.43;7.97;;;;;;;-4.87;81.14;-23676.78;5079858;28;20264;-73
2022/01/25 06:35:31;;;;;;;21.33;8.07;;;;;;;-5.08;81.43;-23670.88;5080748;28;20233;-73
2022/01/25 06:37:56;;;;;;;15.57;7.67;;;;;;;-4.71;81.38;-23681.22;5085774;28;20178;-73
2022/01/25 06:40:24;;;;;;;19.90;9.53;;;;;;;-5.12;81.44;-23669.56;5080334;28;20188;-73
2022/01/25 06:42:49;;;;;;;14.83;8.43;;;;;;;-4.63;82.53;-23683.69;5086148;28;20633;-74
2022/01/25 06:45:18;;;;;;;16.87;8.90;;;;;;;-4.97;82.24;-23673.88;5079063;28;20205;-74
2022/01/25 06:47:46;;;;;;;16.67;8.47;;;;;;;-4.50;82.14;-23687.44;5079958;28;20185;-73
2022/01/25 06:50:13;;;;;;;16.70;8.20;;;;;;;-4.44;81.40;-23689.03;5078610;28;20574;-73
2022/01/25 06:52:41;;;;;;;17.80;8.37;;;;;;;-4.83;81.24;-23677.94;5081256;28;20186;-73
2022/01/25 06:55:12;;;;;;;19.40;8.70;;;;;;;-4.33;80.91;-23692.19;5060300;28;20717;-73
2022/01/25 06:57:37;;;;;;;21.13;9.00;;;;;;;-4.55;81.01;-23685.84;5082741;28;20658;-73
2022/01/25 07:00:06;;;;;;;19.17;9.00;;;;;;;-4.64;79.22;-23683.41;5077397;28;20277;-72
2022/01/25 07:02:32;;;;;;;17.70;8.23;;;;;;;-4.67;79.62;-23682.41;5082310;28;20200;-73
2022/01/25 07:04:57;;;;;;;18.13;9.33;;;;;;;-4.10;79.75;-23698.66;5076597;28;20214;-76
2022/01/25 07:07:23;;;;;;;16.27;8.70;;;;;;;-4.09;80.17;-23698.94;5083363;28;20218;-73
2022/01/25 07:09:48;;;;;;;18.77;8.93;;;;;;;-4.01;80.64;-23701.25;5075521;28;20197;-73
2022/01/25 07:12:14;;;;;;;19.13;8.90;;;;;;;-4.47;82.09;-23688.28;5066495;28;20192;-73
2022/01/25 07:14:39;;;;;;;24.83;9.17;;;;;;;-4.15;80.87;-23697.22;5073798;28;20209;-73
2022/01/25 07:17:05;;;;;;;19.43;8.70;;;;;;;-3.78;80.30;-23707.88;5094194;28;20182;-73
2022/01/25 07:19:30;;;;;;;15.70;8.80;;;;;;;-4.01;79.50;-23701.25;5089380;28;20614;-74
2022/01/25 07:21:55;;;;;;;18.83;9.13;;;;;;;-3.56;79.94;-23714.06;5073966;28;20174;-74
2022/01/25 07:24:21;;;;;;;16.50;8.83;;;;;;;-4.06;80.17;-23699.97;5074232;28;20219;-74
2022/01/25 07:26:47;;;;;;;18.07;8.87;;;;;;;-3.38;79.33;-23719.09;5078807;28;20178;-74
2022/01/25 07:29:13;;;;;;;16.33;8.63;;;;;;;-3.81;80.27;-23706.88;5061909;28;20770;-74
2022/01/25 07:31:38;;;;;;;18.40;8.70;;;;;;;-3.44;78.67;-23717.38;5091110;28;20218;-74
2022/01/25 07:34:04;;;;;;;15.97;8.30;;;;;;;-3.66;78.44;-23711.31;5092894;28;20170;-73
2022/01/25 07:36:29;;;;;;;17.03;8.17;;;;;;;-3.83;78.21;-23706.44;5075533;28;20645;-73
2022/01/25 07:38:54;;;;;;;16.57;8.43;;;;;;;-3.48;77.54;-23716.38;5082859;28;20192;-73
2022/01/25 07:41:21;;;;;;;15.70;9.13;;;;;;;-3.46;76.57;-23716.78;5084206;28;20177;-72
2022/01/25 07:43:46;;;;;;;17.70;9.07;;;;;;;-3.82;77.08;-23706.72;5075048;28;20264;-74
2022/01/25 07:46:15;;;;;;;15.77;8.97;;;;;;;-3.48;76.35;-23716.38;5082509;28;20173;-73
2022/01/25 07:48:40;;;;;;;17.63;9.00;;;;;;;-3.48;77.39;-23716.38;5075325;28;20181;-73
2022/01/25 07:51:06;;;;;;;24.63;11.33;;;;;;;-2.93;75.90;-23731.88;5063580;28;20174;-73
2022/01/25 07:53:31;;;;;;;26.83;13.00;;;;;;;-2.84;74.67;-23734.47;5076825;28;20235;-73
2022/01/25 07:55:56;;;;;;;33.13;13.43;;;;;;;-2.84;74.80;-23734.47;5066118;28;20232;-73
2022/01/25 07:58:22;;;;;;;32.30;15.00;;;;;;;-3.06;74.56;-23728.31;5093497;28;20189;-73
2022/01/25 08:00:48;;;;;;;32.23;13.30;;;;;;;-3.17;73.73;-23725.13;5079157;28;20177;-73
2022/01/25 08:03:14;;;;;;;23.57;11.57;;;;;;;-2.63;74.29;-23740.38;5083327;28;20177;-73
2022/01/25 08:05:39;;;;;;;18.50;10.53;;;;;;;-2.76;73.46;-23736.91;5080027;28;20699;-72
2022/01/25 08:08:05;;;;;;;19.10;10.33;;;;;;;-2.35;71.71;-23748.56;5077662;28;20194;-73
2022/01/25 08:10:30;;;;;;;17.60;10.00;;;;;;;-2.90;72.72;-23732.91;5080298;28;20216;-73
2022/01/25 08:12:56;;;;;;;14.87;9.20;;;;;;;-2.67;71.64;-23739.38;5093169;28;20264;-74
2022/01/25 08:15:24;;;;;;;16.03;9.40;;;;;;;-2.38;70.91;-23747.69;5083207;28;20189;-71
2022/01/25 08:17:50;;;;;;;18.47;9.23;;;;;;;-2.23;71.00;-23751.88;5082634;28;20185;-71
2022/01/25 08:20:15;;;;;;;20.30;9.40;;;;;;;-2.52;70.62;-23743.69;5072834;28;20187;-71
2022/01/25 08:22:41;;;;;;;16.30;8.80;;;;;;;-1.99;71.04;-23758.75;5083662;28;20648;-72
2022/01/25 08:25:07;;;;;;;17.07;9.37;;;;;;;-2.30;69.10;-23749.84;5074249;28;20216;-72
2022/01/25 08:27:32;;;;;;;17.07;9.30;;;;;;;-2.56;69.94;-23742.38;5081354;28;20235;-73
2022/01/25 08:29:58;;;;;;;18.63;9.77;;;;;;;-2.55;71.05;-23742.81;5073604;28;20206;-73
2022/01/25 08:32:24;;;;;;;18.40;9.47;;;;;;;-2.17;71.74;-23753.59;5082424;28;20649;-73
2022/01/25 08:34:49;;;;;;;15.93;9.13;;;;;;;-2.26;71.17;-23751.16;5071093;28;20524;-74
2022/01/25 08:37:15;;;;;;;22.10;11.00;;;;;;;-2.36;70.13;-23748.28;5080590;28;20190;-73
2022/01/25 08:39:41;;;;;;;18.50;10.13;;;;;;;-1.86;70.57;-23762.34;5088588;28;20186;-73
2022/01/25 08:42:08;;;;;;;22.27;10.37;;;;;;;-1.92;71.01;-23760.75;5079266;28;20549;-73
2022/01/25 08:44:34;;;;;;;15.90;9.73;;;;;;;-2.18;70.56;-23753.16;5076431;28;20653;-73
2022/01/25 08:47:00;;;;;;;17.57;10.03;;;;;;;-2.24;69.17;-23751.72;5083038;28;20223;-74
2022/01/25 08:49:27;;;;;;;19.27;10.03;;;;;;;-1.82;70.21;-23763.63;5071317;28;20285;-72
2022/01/25 08:51:53;;;;;;;19.80;10.53;;;;;;;-1.57;70.66;-23770.53;5083451;28;20234;-73
2022/01/25 08:54:18;;;;;;;24.60;11.83;;;;;;;-1.32;68.91;-23777.69;5054068;28;20182;-73
2022/01/25 08:56:44;;;;;;;20.37;10.13;;;;;;;-1.30;69.86;-23778.28;5083411;28;20188;-73
2022/01/25 08:59:10;;;;;;;20.40;9.80;;;;;;;-1.40;67.93;-23775.41;5071875;28;20241;-73
2022/01/25 09:01:35;;;;;;;17.23;10.00;;;;;;;-1.66;69.21;-23767.94;5082725;28;20295;-73
2022/01/25 09:04:01;;;;;;;18.00;9.67;;;;;;;-1.26;68.66;-23779.28;5071782;28;20637;-74
2022/01/25 09:06:27;;;;;;;17.57;10.13;;;;;;;-1.27;66.92;-23779.13;5081905;28;20246;-74
2022/01/25 09:08:59;;;;;;;17.60;9.77;;;;;;;-0.95;67.53;-23788.16;5072831;28;20179;-72
2022/01/25 09:11:24;;;;;;;27.47;11.30;;;;;;;-1.20;66.79;-23781.00;5080953;28;20267;-71
2022/01/25 09:13:50;;;;;;;24.40;13.30;;;;;;;-1.63;66.37;-23768.81;5073408;28;20623;-72
2022/01/25 09:16:15;;;;;;;22.47;12.63;;;;;;;-1.73;66.34;-23765.94;5079917;28;20740;-73
2022/01/25 09:18:40;;;;;;;19.03;10.47;;;;;;;-1.19;65.88;-23781.44;5074135;28;20190;-72
2022/01/25 09:21:06;;;;;;;22.60;10.77;;;;;;;-1.22;65.89;-23780.56;5078457;28;20174;-73
2022/01/25 09:23:32;;;;;;;18.83;9.93;;;;;;;-0.88;64.34;-23790.03;5057628;28;20194;-72
2022/01/25 09:25:57;;;;;;;19.90;10.47;;;;;;;-0.80;64.26;-23792.47;5081012;28;20174;-76
2022/01/25 09:28:23;;;;;;;25.70;11.23;;;;;;;-0.95;63.91;-23788.31;5091445;28;20176;-75
2022/01/25 09:30:49;;;;;;;17.53;10.20;;;;;;;-0.94;63.78;-23788.59;5077302;28;20208;-72
2022/01/25 09:33:14;;;;;;;19.70;11.17;;;;;;;-0.59;64.04;-23798.34;5067733;28;20328;-73
2022/01/25 09:35:40;;;;;;;17.87;10.10;;;;;;;-0.58;64.17;-23798.78;5071650;28;20181;-72
2022/01/25 09:38:06;;;;;;;19.17;10.13;;;;;;;-0.53;63.96;-23800.06;5080649;28;20182;-72
2022/01/25 09:40:32;;;;;;;18.87;10.47;;;;;;;-0.43;63.09;-23802.94;5071612;28;20260;-73
2022/01/25 09:42:58;;;;;;;19.60;10.27;;;;;;;-0.19;64.47;-23809.66;5082181;28;20528;-72
2022/01/25 09:45:25;;;;;;;21.73;10.87;;;;;;;-0.07;61.25;-23813.09;5058262;28;20183;-72
2022/01/25 09:47:53;;;;;;;19.37;11.07;;;;;;;-0.17;61.28;-23810.25;5077853;28;20215;-74
2022/01/25 09:50:20;;;;;;;19.77;10.17;;;;;;;-0.38;61.06;-23804.22;5075498;28;20299;-73
2022/01/25 09:52:47;;;;;;;18.13;10.83;;;;;;;-0.18;61.12;-23810.09;5060017;28;20570;-73
2022/01/25 09:55:16;;;;;;;18.03;9.63;;;;;;;-0.34;60.44;-23805.50;5075016;28;20180;-74
2022/01/25 09:57:42;;;;;;;22.93;10.80;;;;;;;-0.05;60.36;-23813.69;5078740;28;20672;-73
2022/01/25 10:00:11;;;;;;;21.87;10.70;;;;;;;-0.65;60.47;-23796.78;5074643;28;20203;-74
2022/01/25 10:02:49;;;;;;;17.17;10.00;;;;;;;-0.19;60.98;-23809.66;5084396;28;20208;-74
2022/01/25 10:05:17;;;;;;;17.97;9.93;;;;;;;-0.47;60.53;-23801.78;5079462;28;20231;-74
2022/01/25 10:07:53;;;;;;;20.20;10.87;;;;;;;0.03;60.08;-23815.81;5095712;28;20205;-74
2022/01/25 10:10:19;;;;;;;19.90;10.57;;;;;;;-0.14;60.33;-23811.25;5085756;28;20204;-75
2022/01/25 10:12:45;;;;;;;19.47;11.17;;;;;;;0.30;60.65;-23823.56;5086290;28;20206;-75
2022/01/25 10:15:11;;;;;;;15.93;9.40;;;;;;;0.41;55.60;-23826.72;5060491;28;20191;-73
2022/01/25 10:17:37;;;;;;;15.60;9.23;;;;;;;0.44;53.94;-23827.72;5065624;28;20189;-73
2022/01/25 10:20:05;;;;;;;17.73;9.67;;;;;;;0.14;54.37;-23819.13;5077081;28;20178;-73
2022/01/25 10:22:42;;;;;;;17.77;8.60;;;;;;;0.75;54.30;-23836.28;5095555;28;20204;-73
2022/01/25 10:25:08;;;;;;;25.70;9.67;;;;;;;0.27;53.86;-23822.84;5087037;28;20182;-73
2022/01/25 10:27:59;;;;;;;16.50;9.00;;;;;;;0.76;53.13;-23836.56;5057079;28;20554;-73
2022/01/25 10:30:25;;;;;;;17.73;8.10;;;;;;;0.37;49.76;-23825.69;5075401;28;20402;-73
2022/01/25 10:32:52;;;;;;;18.00;8.57;;;;;;;0.63;50.83;-23832.84;5067733;28;20300;-74
2022/01/25 10:35:17;;;;;;;14.80;7.97;;;;;;;0.77;50.03;-23836.88;5061106;28;20189;-73
2022/01/25 10:37:43;;;;;;;19.83;8.90;;;;;;;0.74;50.06;-23836.00;5095794;28;20182;-73
2022/01/25 10:40:09;;;;;;;17.00;9.07;;;;;;;0.59;50.88;-23831.72;5086444;28;20182;-74
2022/01/25 10:42:38;;;;;;;19.07;8.60;;;;;;;0.43;50.15;-23827.28;5080282;28;20600;-73
2022/01/25 10:45:10;;;;;;;17.10;8.77;;;;;;;1.07;49.39;-23845.31;5076587;28;20178;-73
2022/01/25 10:47:51;;;;;;;17.00;9.10;;;;;;;0.89;50.57;-23840.44;5083182;28;20183;-73
2022/01/25 10:50:16;;;;;;;16.33;9.00;;;;;;;1.22;49.71;-23849.72;5078852;28;20251;-73
2022/01/25 10:52:42;;;;;;;18.30;9.40;;;;;;;1.00;50.02;-23843.44;5082670;28;20220;-73
2022/01/25 10:55:08;;;;;;;19.03;8.70;;;;;;;1.25;47.59;-23850.44;5077642;28;20180;-73
2022/01/25 10:57:34;;;;;;;14.73;8.23;;;;;;;0.82;46.91;-23838.44;5083172;28;20189;-73
2022/01/25 11:00:06;;;;;;;14.73;8.37;;;;;;;1.07;46.12;-23845.31;5076043;28;20670;-73
2022/01/25 11:02:33;;;;;;;15.47;8.37;;;;;;;0.96;48.66;-23842.16;5083350;28;20683;-73
2022/01/25 11:05:07;;;;;;;21.73;9.40;;;;;;;0.87;49.52;-23839.88;5075057;28;20237;-73
2022/01/25 11:07:40;;;;;;;14.70;8.60;;;;;;;0.87;49.41;-23839.88;5082648;28;20184;-74
2022/01/25 11:10:09;;;;;;;18.40;9.53;;;;;;;0.70;49.41;-23835.00;5075787;28;20266;-71
2022/01/25 11:12:39;;;;;;;14.63;8.23;;;;;;;1.10;49.01;-23846.16;5094113;28;20231;-72
2022/01/25 11:15:06;;;;;;;13.90;7.70;;;;;;;1.09;47.50;-23845.88;5086402;28;20652;-72
2022/01/25 11:17:32;;;;;;;15.20;8.03;;;;;;;0.64;47.40;-23833.28;5074007;28;20315;-72
2022/01/25 11:20:00;;;;;;;12.70;7.67;;;;;;;0.92;46.51;-23841.00;5074112;28;20254;-72
2022/01/25 11:22:26;;;;;;;13.40;6.97;;;;;;;1.32;45.66;-23852.44;5074501;28;20535;-74
2022/01/25 11:24:56;;;;;;;15.43;8.77;;;;;;;1.61;44.88;-23860.75;5073591;28;20681;-74
2022/01/25 11:27:23;;;;;;;11.93;7.83;;;;;;;1.34;44.23;-23853.03;5074031;28;20181;-72
2022/01/25 11:29:50;;;;;;;19.73;9.87;;;;;;;1.26;44.77;-23850.72;5074017;28;20284;-74
2022/01/25 11:32:20;;;;;;;29.97;12.87;;;;;;;1.41;45.07;-23855.03;5073894;28;20181;-74
2022/01/25 11:34:47;;;;;;;24.37;12.13;;;;;;;1.60;45.23;-23860.31;5074195;28;20173;-72
2022/01/25 11:37:13;;;;;;;28.83;15.20;;;;;;;1.19;42.82;-23848.88;5055757;28;20217;-73
2022/01/25 11:39:44;;;;;;;28.67;15.00;;;;;;;1.25;44.16;-23850.44;5074044;28;20599;-73
2022/01/25 11:42:18;;;;;;;24.93;14.33;;;;;;;1.69;44.08;-23862.88;5074488;28;20170;-74
2022/01/25 11:44:58;;;;;;;24.57;12.77;;;;;;;1.45;44.24;-23856.16;5074896;28;20255;-75
2022/01/25 11:47:34;;;;;;;30.20;17.33;;;;;;;1.52;43.96;-23858.03;5075513;28;20172;-79
2022/01/25 11:50:07;;;;;;;16.20;8.13;;;;;;;1.03;43.17;-23844.16;5058227;28;20299;-83
2022/01/25 11:52:33;;;;;;;25.07;14.07;;;;;;;1.29;44.19;-23851.59;5077113;28;20207;-79
2022/01/25 11:55:19;;;;;;;18.03;9.97;;;;;;;1.71;45.00;-23863.47;5076137;28;20648;-80
2022/01/25 11:57:52;;;;;;;15.73;9.57;;;;;;;1.66;44.47;-23862.19;5057128;28;20191;-77
2022/01/25 12:00:21;;;;;;;14.17;7.97;;;;;;;1.53;43.93;-23858.44;5073913;28;20190;-74
2022/01/25 12:02:51;;;;;;;12.20;7.63;;;;;;;1.78;43.77;-23865.59;5073235;28;20227;-72
2022/01/25 12:05:27;;;;;;;13.80;7.50;;;;;;;1.66;42.51;-23862.19;5073011;28;20232;-72
2022/01/25 12:08:15;;;;;;;19.90;8.50;;;;;;;1.38;43.07;-23854.16;5073734;28;20263;-71
2022/01/25 12:10:47;;;;;;;14.77;9.00;;;;;;;1.50;43.07;-23857.59;5073443;28;20193;-74
2022/01/25 12:13:16;;;;;;;17.10;9.07;;;;;;;1.60;43.56;-23860.47;5073557;28;20646;-73
2022/01/25 12:15:42;;;;;;;16.00;8.77;;;;;;;2.14;42.54;-23875.75;5073165;28;20197;-74
2022/01/25 12:18:46;;;;;;;11.30;7.17;;;;;;;2.15;42.03;-23875.88;5073323;28;20169;-74
2022/01/25 12:21:12;;;;;;;12.03;7.47;;;;;;;1.64;42.20;-23861.47;5072653;28;20177;-73
2022/01/25 12:23:45;;;;;;;13.50;7.20;;;;;;;1.61;41.76;-23860.75;5072286;28;20173;-73
2022/01/25 12:26:16;;;;;;;12.10;7.80;;;;;;;1.68;42.37;-23862.59;5054129;28;20216;-74
2022/01/25 12:28:45;;;;;;;10.83;6.93;;;;;;;1.50;42.36;-23857.47;5072573;28;20165;-74
2022/01/25 12:31:15;;;;;;;14.33;8.30;;;;;;;1.76;41.88;-23864.88;5072519;28;20293;-73
2022/01/25 12:33:42;;;;;;;13.80;7.80;;;;;;;1.78;42.57;-23865.59;5072354;28;20304;-74
2022/01/25 12:36:09;;;;;;;17.00;8.50;;;;;;;2.06;41.61;-23873.31;5072578;28;20734;-73
2022/01/25 12:38:49;;;;;;;12.40;7.17;;;;;;;2.19;40.55;-23877.03;5072054;28;20187;-73
2022/01/25 12:41:18;;;;;;;17.07;8.50;;;;;;;1.56;40.41;-23859.16;5072300;28;20570;-73
2022/01/25 12:43:51;;;;;;;13.57;8.53;;;;;;;1.81;40.66;-23866.31;5072348;28;20211;-72
2022/01/25 12:46:24;;;;;;;10.37;7.33;;;;;;;1.76;40.77;-23865.03;5072542;28;20247;-72
2022/01/25 12:48:52;;;;;;;12.97;7.53;;;;;;;2.09;41.11;-23874.16;5072228;28;20204;-72
2022/01/25 12:51:22;;;;;;;14.63;8.00;;;;;;;2.00;41.65;-23871.59;5054159;28;20174;-72
2022/01/25 12:53:50;;;;;;;13.20;7.73;;;;;;;1.99;41.86;-23871.31;5072520;28;20721;-73
2022/01/25 12:56:19;;;;;;;13.13;7.80;;;;;;;1.61;41.94;-23860.59;5071949;28;20173;-73
2022/01/25 12:58:48;;;;;;;14.27;8.07;;;;;;;1.87;42.62;-23867.88;5070304;28;20184;-73
2022/01/25 13:01:17;;;;;;;13.53;7.40;;;;;;;1.76;40.23;-23865.03;5072340;28;20666;-72
2022/01/25 13:03:48;;;;;;;14.73;8.70;;;;;;;1.94;40.49;-23869.88;5072473;28;20198;-73
2022/01/25 13:06:32;;;;;;;12.73;7.20;;;;;;;2.04;40.93;-23872.75;5072141;28;20236;-73
2022/01/25 13:17:17;;;;;;;12.97;7.77;;;;;;;2.24;40.22;-23878.47;5072019;28;20190;-74
2022/01/25 13:19:48;;;;;;;13.23;7.93;;;;;;;2.14;40.30;-23875.59;5059902;28;20275;-74
2022/01/25 13:22:18;;;;;;;14.63;7.67;;;;;;;2.17;40.21;-23876.47;5078782;28;20196;-73
2022/01/25 13:25:26;;;;;;;14.67;8.50;;;;;;;2.15;40.61;-23876.03;5092323;28;20184;-73
2022/01/25 13:27:56;;;;;;;14.60;8.17;;;;;;;2.03;40.17;-23872.47;5091912;28;20179;-75
2022/01/25 13:30:41;;;;;;;13.90;7.67;;;;;;;1.96;38.69;-23870.59;5091796;28;20196;-73